createdAt,value
2019-03-30T00:00:41.051Z,99.90
2019-03-30T00:03:10.416Z,99.90
2019-03-30T00:08:09.029Z,99.90
2019-03-30T00:10:38.371Z,99.90
2019-03-30T00:20:35.106Z,99.90
2019-03-30T00:28:03.156Z,99.90
2019-03-30T00:38:00.231Z,99.90
2019-03-30T00:40:29.627Z,99.90
2019-03-30T00:47:57.480Z,99.90
2019-03-30T00:57:54.513Z,99.90
2019-03-30T01:00:24.117Z,99.90
2019-03-30T01:02:53.473Z,99.90
2019-03-30T01:05:22.851Z,99.90
2019-03-30T01:07:52.199Z,99.90
2019-03-30T01:12:50.865Z,99.90
2019-03-30T01:25:16.633Z,99.90
2019-03-30T01:27:46.010Z,99.90
2019-03-30T01:32:46.665Z,99.90
2019-03-30T01:40:14.789Z,99.90
2019-03-30T01:45:13.383Z,99.90
2019-03-30T01:57:41.045Z,99.90
2019-03-30T02:02:40.143Z,99.90
2019-03-30T02:05:09.853Z,99.90
2019-03-30T02:07:39.262Z,99.90
2019-03-30T02:17:38.189Z,99.90
2019-03-30T02:20:08.834Z,99.90
2019-03-30T02:22:38.230Z,99.90
2019-03-30T02:25:08.532Z,99.90
2019-03-30T02:27:37.919Z,99.90
2019-03-30T02:35:07.757Z,99.90
2019-03-30T02:40:07.760Z,99.90
2019-03-30T02:55:07.117Z,99.90
2019-03-30T02:57:36.449Z,99.90
2019-03-30T03:02:37.212Z,99.90
2019-03-30T03:05:08.065Z,99.90
2019-03-30T03:07:37.389Z,99.90
2019-03-30T03:12:37.213Z,99.90
2019-03-30T03:15:07.786Z,99.90
2019-03-30T03:17:37.631Z,99.90
2019-03-30T03:25:08.142Z,99.90
2019-03-30T03:27:37.507Z,99.90
2019-03-30T03:30:07.588Z,99.90
2019-03-30T03:35:07.577Z,99.90
2019-03-30T03:40:08.856Z,99.90
2019-03-30T03:45:09.638Z,99.90
2019-03-30T03:52:38.492Z,99.90
2019-03-30T03:55:07.992Z,99.90
2019-03-30T04:00:10.058Z,99.90
2019-03-30T04:05:09.704Z,99.90
2019-03-30T04:10:11.532Z,99.90
2019-03-30T04:12:44.005Z,99.90
2019-03-30T04:25:16.601Z,99.90
2019-03-30T04:32:44.554Z,99.90
2019-03-30T04:37:43.002Z,99.90
2019-03-30T04:40:12.628Z,99.90
2019-03-30T04:45:11.155Z,99.90
2019-03-30T04:50:09.869Z,99.90
2019-03-30T04:52:39.206Z,99.90
2019-03-30T04:57:37.629Z,99.90
2019-03-30T05:00:08.619Z,99.90
2019-03-30T05:02:38.321Z,99.90
2019-03-30T05:05:08.614Z,99.90
2019-03-30T05:07:38.156Z,99.90
2019-03-30T05:10:09.037Z,99.90
2019-03-30T05:25:06.936Z,99.90
2019-03-30T05:27:36.279Z,99.90
2019-03-30T05:30:07.561Z,99.90
2019-03-30T05:35:08.196Z,99.90
2019-03-30T05:40:08.613Z,99.90
2019-03-30T05:57:34.807Z,99.90
2019-03-30T06:00:06.355Z,99.90
2019-03-30T06:05:05.794Z,99.90
2019-03-30T06:07:35.173Z,99.90
2019-03-30T06:10:06.646Z,99.90
2019-03-30T06:15:07.770Z,99.90
2019-03-30T06:17:37.105Z,99.90
2019-03-30T06:30:23.097Z,99.90
2019-03-30T06:40:19.898Z,99.90
2019-03-30T06:45:18.372Z,99.90
2019-03-30T06:47:47.757Z,99.90
2019-03-30T06:50:17.222Z,99.90
2019-03-30T06:52:57.277Z,99.90
2019-03-30T06:55:24.402Z,99.90
2019-03-30T07:05:42.605Z,99.90
2019-03-30T07:08:17.232Z,99.90
2019-03-30T07:10:48.305Z,99.90
2019-03-30T07:15:49.175Z,99.90
2019-03-30T07:18:19.434Z,99.90
2019-03-30T07:20:48.803Z,99.90
2019-03-30T07:25:47.367Z,99.90
2019-03-30T07:33:14.917Z,99.90
2019-03-30T07:38:13.470Z,99.90
2019-03-30T07:40:42.808Z,99.90
2019-03-30T07:45:41.737Z,99.90
2019-03-30T07:48:11.199Z,99.90
2019-03-30T07:58:07.922Z,99.90
2019-03-30T08:05:38.187Z,99.90
2019-03-30T08:08:07.692Z,99.90
2019-03-30T08:10:38.205Z,99.90
2019-03-30T08:18:07.653Z,99.90
2019-03-30T08:23:11.434Z,99.90
2019-03-30T08:28:10.319Z,99.90
2019-03-30T08:35:38.006Z,99.90
2019-03-30T08:40:36.507Z,99.90
2019-03-30T08:45:34.993Z,99.90
2019-03-30T08:55:32.162Z,99.90
2019-03-30T09:00:39.424Z,99.90
2019-03-30T09:03:08.873Z,99.90
2019-03-30T09:05:38.323Z,99.90
2019-03-30T09:13:13.058Z,99.90
2019-03-30T09:15:42.441Z,99.90
2019-03-30T09:20:40.965Z,99.90
2019-03-30T09:33:07.741Z,99.90
2019-03-30T09:35:37.200Z,99.90
2019-03-30T09:40:37.654Z,99.90
2019-03-30T09:43:08.674Z,99.90
2019-03-30T09:45:38.142Z,99.90
2019-03-30T09:58:04.238Z,99.90
2019-03-30T10:00:36.788Z,99.90
2019-03-30T10:03:07.458Z,99.90
2019-03-30T10:10:35.651Z,99.90
2019-03-30T10:13:05.853Z,99.90
2019-03-30T10:33:02.671Z,96.90
2019-03-30T10:38:02.544Z,99.30
2019-03-30T10:43:01.847Z,99.90
2019-03-30T10:55:33.783Z,96.80
2019-03-30T10:58:03.226Z,99.60
2019-03-30T11:03:07.659Z,97.30
2019-03-30T11:05:37.014Z,96.60
2019-03-30T11:08:07.428Z,97.90
2019-03-30T11:10:39.130Z,95.40
2019-03-30T11:13:09.432Z,99.30
2019-03-30T11:20:41.761Z,91.90
2019-03-30T11:28:21.817Z,89.60
2019-03-30T11:33:20.286Z,89.90
2019-03-30T11:35:49.639Z,90.10
2019-03-30T11:38:18.978Z,89.30
2019-03-30T11:40:48.347Z,89.60
2019-03-30T11:45:46.806Z,90.70
2019-03-30T11:53:15.195Z,90.00
2019-03-30T12:05:41.030Z,91.80
2019-03-30T12:08:10.452Z,88.20
2019-03-30T12:18:10.487Z,78.00
2019-03-30T12:20:39.830Z,89.60
2019-03-30T12:28:07.682Z,89.10
2019-03-30T12:30:37.051Z,89.40
2019-03-30T12:35:35.514Z,88.70
2019-03-30T12:40:34.083Z,88.20
2019-03-30T12:48:01.691Z,88.60
2019-03-30T13:07:56.226Z,90.00
2019-03-30T13:15:23.926Z,85.60
2019-03-30T13:20:22.360Z,90.30
2019-03-30T13:22:51.755Z,78.20
2019-03-30T13:27:53.257Z,85.60
2019-03-30T13:30:21.599Z,90.50
2019-03-30T13:32:53.411Z,91.40
2019-03-30T13:37:51.255Z,90.20
2019-03-30T13:40:20.662Z,78.00
2019-03-30T13:45:19.126Z,81.60
2019-03-30T13:47:48.574Z,81.30
2019-03-30T13:57:45.424Z,85.30
2019-03-30T14:00:15.199Z,74.60
2019-03-30T14:07:43.401Z,85.80
2019-03-30T14:15:11.566Z,86.50
2019-03-30T14:35:08.554Z,83.70
2019-03-30T14:42:38.293Z,82.10
2019-03-30T14:55:09.766Z,74.20
2019-03-30T14:57:39.202Z,80.20
2019-03-30T15:00:12.063Z,78.30
2019-03-30T15:07:40.134Z,65.60
2019-03-30T15:10:10.738Z,77.40
2019-03-30T15:15:11.389Z,79.00
2019-03-30T15:22:41.506Z,83.00
2019-03-30T15:30:10.012Z,80.70
2019-03-30T15:32:39.376Z,70.50
2019-03-30T15:35:09.654Z,71.20
2019-03-30T15:37:39.154Z,79.30
2019-03-30T15:42:40.373Z,79.10
2019-03-30T15:45:13.671Z,73.10
2019-03-30T15:55:16.515Z,75.10
2019-03-30T16:00:19.136Z,79.80
2019-03-30T16:05:17.735Z,80.50
2019-03-30T16:15:15.148Z,80.70
2019-03-30T16:17:44.491Z,79.60
2019-03-30T16:20:14.712Z,73.10
2019-03-30T16:27:42.879Z,81.10
2019-03-30T16:30:12.746Z,76.60
2019-03-30T16:35:11.644Z,81.40
2019-03-30T16:37:40.999Z,83.10
2019-03-30T16:40:10.951Z,80.00
2019-03-30T16:42:40.336Z,69.00
2019-03-30T16:45:10.010Z,82.60
2019-03-30T16:47:39.407Z,79.10
2019-03-30T16:50:09.762Z,82.20
2019-03-30T16:55:10.780Z,74.10
2019-03-30T17:00:11.415Z,83.60
2019-03-30T17:02:40.819Z,72.00
2019-03-30T17:05:10.292Z,84.40
2019-03-30T17:07:39.688Z,84.70
2019-03-30T17:10:10.168Z,82.20
2019-03-30T17:20:08.662Z,76.60
2019-03-30T17:32:37.869Z,89.10
2019-03-30T17:37:36.923Z,90.00
2019-03-30T17:40:10.913Z,90.00
2019-03-30T17:52:38.064Z,90.90
2019-03-30T17:57:36.561Z,93.30
2019-03-30T18:05:10.998Z,93.90
2019-03-30T18:07:40.434Z,93.10
2019-03-30T18:15:09.645Z,94.80
2019-03-30T18:25:08.143Z,94.90
2019-03-30T18:27:37.488Z,94.90
2019-03-30T18:35:09.421Z,96.30
2019-03-30T18:40:09.217Z,93.10
2019-03-30T18:45:11.505Z,98.80
2019-03-30T18:52:39.798Z,99.90
2019-03-30T18:57:40.131Z,95.50
2019-03-30T19:00:09.642Z,94.90
2019-03-30T19:05:08.163Z,99.00
2019-03-30T19:07:37.532Z,95.70
2019-03-30T19:20:08.878Z,99.90
2019-03-30T19:22:38.246Z,99.90
2019-03-30T19:30:09.724Z,99.90
2019-03-30T19:32:39.090Z,99.90
2019-03-30T19:35:09.111Z,99.90
2019-03-30T19:37:38.479Z,99.90
2019-03-30T19:42:37.254Z,99.90
2019-03-30T19:47:38.580Z,99.90
2019-03-30T19:57:37.373Z,99.90
2019-03-30T20:00:11.149Z,99.90
2019-03-30T20:05:10.396Z,99.90
2019-03-30T20:07:39.791Z,99.90
2019-03-30T20:10:09.755Z,99.90
2019-03-30T20:12:39.423Z,99.90
2019-03-30T20:25:09.518Z,99.90
2019-03-30T20:30:09.832Z,99.90
2019-03-30T20:35:09.514Z,99.90
2019-03-30T20:40:10.332Z,99.90
2019-03-30T20:45:10.195Z,99.90
2019-03-30T20:50:09.351Z,99.90
2019-03-30T20:55:08.246Z,99.90
2019-03-30T21:00:13.512Z,99.90
2019-03-30T21:02:42.927Z,99.90
2019-03-30T21:05:12.700Z,99.90
2019-03-30T21:10:13.074Z,99.90
2019-03-30T21:15:12.165Z,99.90
2019-03-30T21:17:41.663Z,99.90
2019-03-30T21:22:40.583Z,99.90
2019-03-30T21:35:09.900Z,99.90
2019-03-30T21:37:39.294Z,99.90
2019-03-30T21:45:08.746Z,99.90
2019-03-30T21:47:38.227Z,99.90
2019-03-30T21:50:09.103Z,99.90
2019-03-30T21:52:38.538Z,99.90
2019-03-30T21:57:37.391Z,99.90
2019-03-30T22:02:38.794Z,99.90
2019-03-30T22:05:09.268Z,99.90
2019-03-30T22:10:09.842Z,99.90
2019-03-30T22:17:40.534Z,99.90
2019-03-30T22:20:10.414Z,99.90
2019-03-30T22:22:39.875Z,99.90
2019-03-30T22:25:09.502Z,99.90
2019-03-30T22:27:38.922Z,99.90
2019-03-30T22:30:23.638Z,99.90
2019-03-30T22:35:09.609Z,99.90
2019-03-30T22:37:39.105Z,99.90
2019-03-30T22:40:09.403Z,99.90
2019-03-30T22:50:16.025Z,99.90
2019-03-30T22:52:45.886Z,99.90
2019-03-30T23:00:21.988Z,99.90
2019-03-30T23:05:20.997Z,99.90
2019-03-30T23:10:19.972Z,99.90
2019-03-30T23:20:17.407Z,99.90
2019-03-30T23:27:45.816Z,99.90
2019-03-30T23:35:14.547Z,99.90
2019-03-30T23:42:42.548Z,99.90
2019-03-30T23:47:41.762Z,99.90
2019-03-30T23:50:13.013Z,99.90
